Accueil
METAR-TAF:

METAR-TAF

Aéroports :

South Big Horn County Airport

Greybull, Wyoming, États-Unis

latitude: 44-30-57N, longitude: 108-04-33W, altitude: 1199 m

Observation

Le bulletin a été fait il y a 1 heure et 0 minutes, à 13:53 UTC
Vent 10 kt de ouest
Température 18°C
Humidité 52%
Pression 1021 hPa
Visibilité: 16.1 km
Ciel clair

METAR: KGEY 021353Z AUTO 28010KT 10SM CLR 18/08 A3015 RMK AO2 SLP171 T01780083

Heure: 08:53 (14:53 UTC)


TAF: absent

Observations et prévisions météorologiques de plus de 4000 aéroports (messages METAR et TAF).

Les stations disponibles sont représentées par des disques jaunes et rouges sur la carte.

Passer la souris dessus pour voir le nom de la station.

Cliquer dessus pour voir les observations et prévisions météorologiques.

Pour changer de carte: cliquez sur les boutons verts avec une croix noire pour zoomer, sur le bouton vert avec un tiret pour effectuer un zoom arrière, ou sur les flèches vertes pour les cartes adjacentes.


METAR-TAF: